Time;durP1;ratioP1;P1;durP2;ratioP2;P2;SDS_P1;SDS_P2;PMS_P1;PMS_P2;Temp;Humidity;BMP_temperature;BMP_pressure;BME280_temperature;BME280_humidity;BME280_pressure;Samples;Min_cycle;Max_cycle;Signal;HPM_P1;HPM_P2
2023/10/16 00:01:09;;;;;;;9.30;5.87;;;7.10;99.90;;;;;;5071144;28;20228;-80
2023/10/16 00:03:38;;;;;;;7.50;6.13;;;7.20;99.90;;;;;;5068688;28;20204;-80
2023/10/16 00:06:06;;;;;;;7.13;6.27;;;7.20;99.90;;;;;;5058581;28;20228;-81
2023/10/16 00:08:35;;;;;;;8.03;6.27;;;7.20;99.90;;;;;;5060728;28;20214;-80
2023/10/16 00:11:04;;;;;;;8.83;5.83;;;7.20;99.90;;;;;;5057295;28;20709;-81
2023/10/16 00:13:35;;;;;;;8.17;6.57;;;7.30;99.90;;;;;;5059896;28;20195;-81
2023/10/16 00:16:04;;;;;;;8.10;5.57;;;7.20;99.90;;;;;;5071881;28;20219;-80
2023/10/16 00:18:34;;;;;;;6.87;6.03;;;7.20;99.90;;;;;;5054348;28;20198;-81
2023/10/16 00:21:04;;;;;;;7.03;5.67;;;7.30;99.90;;;;;;5080459;28;20224;-81
2023/10/16 00:23:37;;;;;;;9.03;6.43;;;7.30;99.90;;;;;;5061081;28;20219;-81
2023/10/16 00:26:07;;;;;;;9.43;5.90;;;7.30;99.90;;;;;;5070121;28;20206;-81
2023/10/16 00:28:35;;;;;;;10.20;5.67;;;7.20;99.90;;;;;;5082795;28;20204;-80
2023/10/16 00:31:04;;;;;;;8.47;6.17;;;7.10;99.90;;;;;;5058526;28;20218;-81
2023/10/16 00:33:33;;;;;;;9.07;6.40;;;7.00;99.90;;;;;;5065259;28;20197;-81
2023/10/16 00:36:01;;;;;;;10.77;6.50;;;7.20;99.90;;;;;;5056956;28;20201;-81
2023/10/16 00:38:36;;;;;;;7.53;6.20;;;7.00;99.90;;;;;;5061062;28;20198;-81
2023/10/16 00:41:15;;;;;;;11.20;6.70;;;7.10;99.90;;;;;;5079064;28;20226;-81
2023/10/16 00:43:44;;;;;;;9.53;6.47;;;7.00;99.90;;;;;;5074432;28;20193;-81
2023/10/16 00:46:24;;;;;;;9.17;6.40;;;7.00;99.90;;;;;;5061859;28;20217;-81
2023/10/16 00:48:53;;;;;;;7.60;6.20;;;7.00;99.90;;;;;;5057170;28;20216;-81
2023/10/16 00:51:21;;;;;;;8.27;6.10;;;7.00;99.90;;;;;;5075192;28;20227;-81
2023/10/16 00:53:48;;;;;;;7.17;6.10;;;7.00;99.90;;;;;;5056906;28;20205;-80
2023/10/16 00:56:18;;;;;;;11.50;6.23;;;7.00;99.90;;;;;;5055705;28;20658;-81
2023/10/16 00:58:48;;;;;;;8.43;6.70;;;7.10;99.90;;;;;;5079570;28;20201;-81
2023/10/16 01:01:18;;;;;;;9.33;6.40;;;7.10;99.90;;;;;;5057000;28;20221;-81
2023/10/16 01:03:48;;;;;;;7.63;6.27;;;7.00;99.90;;;;;;5071650;28;20217;-81
2023/10/16 01:06:17;;;;;;;7.93;5.97;;;7.10;99.90;;;;;;5067777;28;20209;-81
2023/10/16 01:08:45;;;;;;;8.90;6.07;;;7.10;99.90;;;;;;5059490;28;20206;-80
2023/10/16 01:11:14;;;;;;;9.13;6.53;;;7.00;99.90;;;;;;5062519;28;20236;-81
2023/10/16 01:13:42;;;;;;;8.47;6.40;;;7.00;99.90;;;;;;5060751;28;20197;-81
2023/10/16 01:16:11;;;;;;;9.27;6.43;;;6.90;99.90;;;;;;5072328;28;20567;-80
2023/10/16 01:18:38;;;;;;;9.23;6.00;;;7.00;99.90;;;;;;5081953;28;20666;-80
2023/10/16 01:21:08;;;;;;;9.20;6.27;;;7.00;99.90;;;;;;5072483;28;20224;-80
2023/10/16 01:23:37;;;;;;;8.93;6.27;;;7.00;99.90;;;;;;5054956;28;20202;-81
2023/10/16 01:26:05;;;;;;;10.93;6.57;;;7.00;99.90;;;;;;5076472;28;20214;-81
2023/10/16 01:28:32;;;;;;;10.53;6.77;;;6.90;99.90;;;;;;5079732;28;20216;-81
2023/10/16 01:31:00;;;;;;;9.43;6.30;;;7.00;99.90;;;;;;5075479;28;20222;-81
2023/10/16 01:33:30;;;;;;;8.67;6.27;;;7.00;99.90;;;;;;5076967;28;20198;-79
2023/10/16 01:35:57;;;;;;;9.90;6.47;;;6.90;99.90;;;;;;5061508;28;20201;-81
2023/10/16 01:38:27;;;;;;;11.40;6.90;;;7.00;99.90;;;;;;5053191;28;20217;-81
2023/10/16 01:41:04;;;;;;;7.87;5.90;;;7.00;99.90;;;;;;5050399;28;20222;-81
2023/10/16 01:43:33;;;;;;;9.10;6.33;;;7.10;99.90;;;;;;5075282;28;20205;-81
2023/10/16 01:46:07;;;;;;;9.03;6.13;;;7.00;99.90;;;;;;5057915;28;20237;-81
2023/10/16 01:48:37;;;;;;;9.27;6.43;;;7.10;99.90;;;;;;5074222;28;20194;-81
2023/10/16 01:51:06;;;;;;;10.47;6.30;;;7.30;99.90;;;;;;5050547;28;20567;-81
2023/10/16 01:53:36;;;;;;;8.10;7.10;;;7.20;99.90;;;;;;5056250;28;20205;-81
2023/10/16 01:56:12;;;;;;;8.47;6.90;;;7.10;99.90;;;;;;5056572;28;20662;-80
2023/10/16 01:58:41;;;;;;;8.93;6.37;;;7.00;99.90;;;;;;5056426;28;20682;-81
2023/10/16 02:01:10;;;;;;;9.63;7.47;;;7.00;99.90;;;;;;5076198;28;20220;-81
2023/10/16 02:03:43;;;;;;;12.03;6.37;;;7.00;99.90;;;;;;5060956;28;20197;-81
2023/10/16 02:06:12;;;;;;;10.07;7.23;;;7.10;99.90;;;;;;5060761;28;20594;-81
2023/10/16 02:08:39;;;;;;;8.43;6.70;;;7.00;99.90;;;;;;5056986;28;20208;-81
2023/10/16 02:11:10;;;;;;;10.87;6.50;;;6.90;99.90;;;;;;5076117;28;20232;-81
2023/10/16 02:13:40;;;;;;;10.60;7.47;;;6.90;99.90;;;;;;5072261;28;20194;-81
2023/10/16 02:16:12;;;;;;;9.40;6.47;;;6.80;99.90;;;;;;5073930;28;20204;-81
2023/10/16 02:18:40;;;;;;;10.10;6.20;;;7.00;99.90;;;;;;5058077;28;20595;-80
2023/10/16 02:21:11;;;;;;;9.63;7.57;;;7.10;99.90;;;;;;5060738;28;20228;-80
2023/10/16 02:23:38;;;;;;;10.53;6.80;;;7.00;99.90;;;;;;5053100;28;20206;-81
2023/10/16 02:26:08;;;;;;;9.60;6.90;;;6.90;99.90;;;;;;5076543;28;20202;-80
2023/10/16 02:28:40;;;;;;;10.77;7.43;;;6.80;99.90;;;;;;5057798;28;20204;-80
2023/10/16 02:31:10;;;;;;;8.87;6.97;;;6.70;99.90;;;;;;5055424;28;20221;-81
2023/10/16 02:33:38;;;;;;;10.27;6.80;;;7.00;99.90;;;;;;5049704;28;20202;-81
2023/10/16 02:36:07;;;;;;;10.93;7.20;;;6.90;99.90;;;;;;5059914;28;20290;-83
2023/10/16 02:38:34;;;;;;;8.43;7.20;;;6.80;99.90;;;;;;5069908;28;20204;-83
2023/10/16 02:41:03;;;;;;;10.43;6.83;;;6.70;99.90;;;;;;5062695;28;20228;-82
2023/10/16 02:43:36;;;;;;;10.87;7.07;;;6.70;99.90;;;;;;5057236;28;20212;-82
2023/10/16 02:46:05;;;;;;;8.67;6.73;;;6.90;99.90;;;;;;5057618;28;20205;-83
2023/10/16 02:48:32;;;;;;;10.10;7.20;;;6.70;99.90;;;;;;5060535;28;20215;-82
2023/10/16 02:51:00;;;;;;;12.33;6.77;;;6.90;99.90;;;;;;5070663;28;20247;-82
2023/10/16 02:53:28;;;;;;;10.77;7.43;;;6.90;99.90;;;;;;5073393;28;20192;-83
2023/10/16 02:56:05;;;;;;;9.27;6.93;;;6.70;99.90;;;;;;5056633;28;20197;-83
2023/10/16 02:58:34;;;;;;;10.80;7.00;;;6.70;99.90;;;;;;5049485;28;20207;-83
2023/10/16 03:01:06;;;;;;;10.60;7.23;;;6.70;99.90;;;;;;5054446;28;20228;-83
2023/10/16 03:03:33;;;;;;;11.27;8.13;;;6.70;99.90;;;;;;5073390;28;20205;-83
2023/10/16 03:06:03;;;;;;;11.33;7.40;;;6.70;99.90;;;;;;5053225;28;20208;-83
2023/10/16 03:08:31;;;;;;;10.77;7.60;;;6.70;99.90;;;;;;5059787;28;20222;-84
2023/10/16 03:10:59;;;;;;;9.80;7.50;;;6.60;99.90;;;;;;5053655;28;20232;-82
2023/10/16 03:13:27;;;;;;;10.27;8.07;;;6.70;99.90;;;;;;5078021;28;20204;-83
2023/10/16 03:16:05;;;;;;;10.70;7.67;;;6.60;99.90;;;;;;5066004;28;20205;-83
2023/10/16 03:18:33;;;;;;;11.07;8.07;;;6.80;99.90;;;;;;5070598;28;20199;-83
2023/10/16 03:21:26;;;;;;;10.13;7.83;;;6.50;99.90;;;;;;5063461;28;20571;-83
2023/10/16 03:23:55;;;;;;;13.23;9.23;;;6.60;99.90;;;;;;5058099;28;20294;-83
2023/10/16 03:26:28;;;;;;;10.20;8.37;;;6.60;99.90;;;;;;5054372;28;20197;-82
2023/10/16 03:28:57;;;;;;;13.43;8.00;;;6.70;99.90;;;;;;5063000;28;20210;-82
2023/10/16 03:31:27;;;;;;;12.63;9.07;;;6.80;99.90;;;;;;5058900;28;20229;-82
2023/10/16 03:33:55;;;;;;;14.90;8.90;;;6.60;99.90;;;;;;5049603;28;20196;-82
2023/10/16 03:36:23;;;;;;;10.67;8.27;;;6.70;99.90;;;;;;5053840;28;20193;-82
2023/10/16 03:38:51;;;;;;;10.50;7.97;;;6.60;99.90;;;;;;5061095;28;20201;-82
2023/10/16 03:41:27;;;;;;;13.73;7.97;;;6.70;99.90;;;;;;5058600;28;20681;-81
2023/10/16 03:43:58;;;;;;;12.30;8.70;;;6.80;99.90;;;;;;5079510;28;20196;-80
2023/10/16 03:46:28;;;;;;;11.23;8.60;;;6.90;99.90;;;;;;5083209;28;20206;-80
2023/10/16 03:48:56;;;;;;;11.63;8.67;;;6.60;99.90;;;;;;5089014;28;20240;-80
2023/10/16 03:51:24;;;;;;;11.37;8.57;;;6.60;99.90;;;;;;5086057;28;20234;-80
2023/10/16 03:53:52;;;;;;;14.70;10.23;;;6.70;99.90;;;;;;5050659;28;20209;-80
2023/10/16 03:56:20;;;;;;;14.00;9.30;;;6.50;99.90;;;;;;5057870;28;20204;-80
2023/10/16 03:58:53;;;;;;;14.07;9.47;;;6.50;99.90;;;;;;5058948;28;20202;-80
2023/10/16 04:01:23;;;;;;;11.47;9.53;;;6.50;99.90;;;;;;5054184;28;20224;-80
2023/10/16 04:03:56;;;;;;;12.13;9.23;;;6.60;99.90;;;;;;5079411;28;20208;-80
2023/10/16 04:06:24;;;;;;;14.47;9.00;;;6.50;99.90;;;;;;5057778;28;20203;-80
2023/10/16 04:08:53;;;;;;;15.10;9.43;;;6.50;99.90;;;;;;5055401;28;20218;-81
2023/10/16 04:11:23;;;;;;;13.73;9.80;;;6.50;99.90;;;;;;5065428;28;20228;-80
2023/10/16 04:13:52;;;;;;;12.53;9.67;;;6.50;99.90;;;;;;5067510;28;20208;-80
2023/10/16 04:16:42;;;;;;;13.17;10.13;;;6.50;99.90;;;;;;5071450;28;20215;-80
2023/10/16 04:22:07;;;;;;;13.13;9.93;;;6.60;99.90;;;;;;5057910;28;20212;-80
2023/10/16 04:24:44;;;;;;;15.90;10.63;;;6.50;99.90;;;;;;5050332;28;20207;-81
2023/10/16 04:27:29;;;;;;;17.60;10.23;;;6.40;99.90;;;;;;5052756;28;20208;-81
2023/10/16 04:35:58;;;;;;;14.07;9.83;;;6.50;99.90;;;;;;5058995;28;20201;-81
2023/10/16 04:38:30;;;;;;;12.83;9.63;;;6.50;99.90;;;;;;5077677;28;20200;-81
2023/10/16 04:44:21;;;;;;;12.77;9.07;;;6.50;99.90;;;;;;5053275;28;20200;-81
2023/10/16 04:49:19;;;;;;;13.03;9.50;;;6.60;99.90;;;;;;5057871;28;20579;-81
2023/10/16 04:51:52;;;;;;;12.47;9.27;;;6.50;99.90;;;;;;5070881;28;20235;-81
2023/10/16 04:54:45;;;;;;;13.00;10.13;;;6.40;99.90;;;;;;5052104;28;20215;-81
2023/10/16 05:00:00;;;;;;;13.90;9.90;;;6.60;99.90;;;;;;5074895;28;20564;-81
2023/10/16 05:02:41;;;;;;;14.10;9.37;;;6.50;99.90;;;;;;5060036;28;20220;-81
2023/10/16 05:08:07;;;;;;;14.53;9.43;;;6.60;99.90;;;;;;5056431;28;20212;-81
2023/10/16 05:10:51;;;;;;;17.17;10.43;;;6.50;99.90;;;;;;5071039;28;20236;-81
2023/10/16 05:13:24;;;;;;;13.73;10.67;;;6.50;99.90;;;;;;5055901;28;20199;-81
2023/10/16 05:15:52;;;;;;;17.50;10.23;;;6.50;99.90;;;;;;5056931;28;20208;-81
2023/10/16 05:18:42;;;;;;;15.10;10.30;;;6.50;99.90;;;;;;5049197;28;20193;-80
2023/10/16 06:14:13;;;;;;;15.40;11.00;;;6.70;99.90;;;;;;5049664;28;20200;-78
2023/10/16 06:16:41;;;;;;;14.27;10.80;;;6.70;99.90;;;;;;5057730;28;20205;-79
2023/10/16 06:19:14;;;;;;;15.67;10.30;;;6.60;99.90;;;;;;5053474;28;20193;-80
2023/10/16 06:21:46;;;;;;;16.53;11.03;;;6.70;99.90;;;;;;5069322;28;20236;-79
2023/10/16 06:24:28;;;;;;;16.07;10.40;;;6.70;99.90;;;;;;5051307;28;20201;-79
2023/10/16 06:26:55;;;;;;;16.50;11.00;;;6.60;99.90;;;;;;5073729;28;20212;-80
2023/10/16 06:29:26;;;;;;;13.90;10.33;;;6.50;99.90;;;;;;5054400;28;20236;-81
2023/10/16 06:31:58;;;;;;;16.97;11.83;;;6.50;99.90;;;;;;5055065;28;20236;-79
2023/10/16 06:34:26;;;;;;;14.97;11.20;;;6.60;99.90;;;;;;5065345;28;20212;-79
2023/10/16 06:36:55;;;;;;;18.50;11.33;;;6.80;99.90;;;;;;5050270;28;20234;-78
2023/10/16 06:39:35;;;;;;;16.07;12.17;;;6.70;99.90;;;;;;5056110;28;20209;-81
2023/10/16 06:42:54;;;;;;;19.77;12.27;;;6.60;99.90;;;;;;5067174;28;20257;-80
2023/10/16 06:53:09;;;;;;;16.40;11.10;;;6.80;99.90;;;;;;5023974;28;20200;-80
2023/10/16 06:55:37;;;;;;;14.50;10.03;;;6.80;99.90;;;;;;5074161;28;20198;-81
2023/10/16 06:58:06;;;;;;;16.20;10.63;;;6.80;99.90;;;;;;5053227;28;20220;-81
2023/10/16 07:00:37;;;;;;;19.30;10.53;;;6.90;99.90;;;;;;5053670;28;20231;-81
2023/10/16 07:03:12;;;;;;;18.50;11.07;;;6.90;99.90;;;;;;5059852;28;20201;-81
2023/10/16 07:05:48;;;;;;;17.03;10.97;;;6.90;99.90;;;;;;5066004;28;20193;-81
2023/10/16 07:08:20;;;;;;;16.73;12.07;;;6.80;99.90;;;;;;5069928;28;20228;-81
2023/10/16 07:10:50;;;;;;;24.30;12.37;;;6.90;99.90;;;;;;5046550;28;20231;-81
2023/10/16 07:13:26;;;;;;;17.33;11.93;;;6.90;99.90;;;;;;5049227;28;20560;-80
2023/10/16 07:15:56;;;;;;;16.60;10.83;;;7.10;99.90;;;;;;5058518;28;20201;-81
2023/10/16 07:18:25;;;;;;;17.17;11.10;;;7.20;99.90;;;;;;5050734;28;20198;-80
2023/10/16 07:20:59;;;;;;;19.03;11.83;;;7.20;99.90;;;;;;5064730;28;20236;-80
2023/10/16 07:23:29;;;;;;;19.80;11.43;;;7.20;99.90;;;;;;5047635;28;20213;-81
2023/10/16 07:25:58;;;;;;;16.20;11.13;;;7.30;99.90;;;;;;5056879;28;20213;-80
2023/10/16 07:28:26;;;;;;;19.77;10.00;;;7.40;99.90;;;;;;5052310;28;20214;-81
2023/10/16 07:30:56;;;;;;;16.17;11.07;;;7.40;99.90;;;;;;5057208;28;20218;-80
2023/10/16 07:33:28;;;;;;;16.13;10.20;;;7.50;99.90;;;;;;5046785;28;20201;-80
2023/10/16 07:35:58;;;;;;;15.80;10.73;;;7.70;99.90;;;;;;5076103;28;20659;-79
2023/10/16 07:38:27;;;;;;;16.23;10.50;;;7.50;99.90;;;;;;5066788;28;20194;-79
2023/10/16 07:40:58;;;;;;;14.53;10.70;;;7.50;99.90;;;;;;5075033;28;20207;-80
2023/10/16 07:43:27;;;;;;;14.73;10.03;;;7.60;99.90;;;;;;5046246;28;20277;-80
2023/10/16 07:46:15;;;;;;;16.23;11.23;;;7.70;99.90;;;;;;5056627;28;20206;-80
2023/10/16 07:48:46;;;;;;;17.10;10.83;;;7.80;99.90;;;;;;5047121;28;20213;-80
2023/10/16 07:51:15;;;;;;;17.37;11.37;;;7.80;99.90;;;;;;5067750;28;20213;-79
2023/10/16 07:53:42;;;;;;;15.93;10.37;;;7.70;99.90;;;;;;5071553;28;20890;-80
2023/10/16 07:56:19;;;;;;;18.80;11.10;;;7.60;99.90;;;;;;5049926;28;20200;-80
2023/10/16 07:58:49;;;;;;;20.20;11.03;;;7.80;99.90;;;;;;5061304;28;20208;-80
2023/10/16 08:01:32;;;;;;;17.03;10.43;;;7.90;99.90;;;;;;5057005;28;20212;-78
2023/10/16 08:04:01;;;;;;;19.17;10.80;;;8.10;99.90;;;;;;5077749;28;20206;-80
2023/10/16 08:06:29;;;;;;;15.40;10.87;;;8.10;99.90;;;;;;5061043;28;20204;-80
2023/10/16 08:11:42;;;;;;;17.33;10.70;;;8.10;99.90;;;;;;5058605;28;20221;-81
2023/10/16 08:14:13;;;;;;;18.97;11.30;;;7.80;99.90;;;;;;5062037;28;20220;-80
2023/10/16 08:16:40;;;;;;;17.63;10.33;;;7.80;99.90;;;;;;5056893;28;20202;-80
2023/10/16 08:19:14;;;;;;;16.93;11.20;;;7.90;99.90;;;;;;5053880;28;20212;-79
2023/10/16 08:21:43;;;;;;;16.23;11.60;;;8.00;99.90;;;;;;5069628;28;20228;-80
2023/10/16 08:24:13;;;;;;;17.47;10.40;;;8.00;99.90;;;;;;5052403;28;20202;-79
2023/10/16 08:26:43;;;;;;;15.43;10.73;;;8.10;99.90;;;;;;5048653;28;20200;-80
2023/10/16 08:29:18;;;;;;;18.63;11.47;;;8.10;99.90;;;;;;5052537;28;20209;-80
2023/10/16 08:34:47;;;;;;;19.23;11.57;;;8.10;99.90;;;;;;5062973;28;20198;-78
2023/10/16 08:37:14;;;;;;;17.10;10.60;;;8.20;99.90;;;;;;5066700;28;20197;-78
2023/10/16 08:39:48;;;;;;;15.57;11.47;;;8.20;99.90;;;;;;5062252;28;20214;-78
2023/10/16 08:42:21;;;;;;;19.13;10.60;;;8.20;99.90;;;;;;5062275;28;20228;-78
2023/10/16 08:44:51;;;;;;;17.83;11.43;;;8.20;99.90;;;;;;5069320;28;20186;-78
2023/10/16 08:47:24;;;;;;;16.40;11.53;;;8.10;99.90;;;;;;5072241;28;20185;-77
2023/10/16 08:49:55;;;;;;;20.10;12.73;;;8.30;99.90;;;;;;5059335;28;20213;-79
2023/10/16 08:52:23;;;;;;;19.03;11.70;;;8.10;99.90;;;;;;5064077;28;20230;-79
2023/10/16 08:55:01;;;;;;;16.57;11.33;;;8.00;99.90;;;;;;5051944;28;20210;-79
2023/10/16 08:57:29;;;;;;;18.10;12.03;;;8.00;99.90;;;;;;5056024;28;20213;-80
2023/10/16 08:59:58;;;;;;;19.37;12.67;;;8.20;99.90;;;;;;5054122;28;20197;-78
2023/10/16 09:02:28;;;;;;;16.03;11.40;;;8.30;99.90;;;;;;5057055;28;20217;-80
2023/10/16 09:04:57;;;;;;;20.60;11.43;;;8.40;99.90;;;;;;5052996;28;20210;-77
2023/10/16 09:07:25;;;;;;;19.67;12.27;;;8.50;99.90;;;;;;5045145;28;20193;-79
2023/10/16 09:09:55;;;;;;;18.37;11.03;;;8.50;99.90;;;;;;5053411;28;20304;-78
2023/10/16 09:12:26;;;;;;;18.60;11.93;;;8.50;99.90;;;;;;5066816;28;20249;-77
2023/10/16 09:14:54;;;;;;;15.77;11.87;;;8.50;99.90;;;;;;5042709;28;20202;-80
2023/10/16 09:17:25;;;;;;;18.00;11.70;;;8.60;99.90;;;;;;5050899;28;20194;-77
2023/10/16 09:19:53;;;;;;;21.70;11.27;;;8.60;99.90;;;;;;5041509;28;20204;-76
2023/10/16 09:22:26;;;;;;;18.70;11.80;;;8.70;99.90;;;;;;5056274;28;20248;-76
2023/10/16 09:24:54;;;;;;;20.50;11.40;;;8.80;99.90;;;;;;5057694;28;20209;-79
2023/10/16 09:27:29;;;;;;;17.83;10.93;;;8.80;99.90;;;;;;5073614;28;20202;-78
2023/10/16 09:30:00;;;;;;;17.70;11.70;;;8.80;99.90;;;;;;5069090;28;20574;-77
2023/10/16 09:32:36;;;;;;;15.80;10.93;;;8.80;99.90;;;;;;5064963;28;20222;-77
2023/10/16 09:35:06;;;;;;;16.13;10.90;;;8.80;99.90;;;;;;5050712;28;20215;-78
2023/10/16 09:37:35;;;;;;;15.80;11.30;;;8.90;99.90;;;;;;5060826;28;20206;-77
2023/10/16 09:40:18;;;;;;;17.10;10.70;;;9.10;99.90;;;;;;5066375;28;20198;-78
2023/10/16 09:42:55;;;;;;;18.07;11.03;;;9.20;99.90;;;;;;5063431;28;20210;-76
2023/10/16 09:45:23;;;;;;;19.87;11.60;;;9.20;99.90;;;;;;5062130;28;20190;-76
2023/10/16 09:47:52;;;;;;;14.47;10.60;;;8.90;99.90;;;;;;5051235;28;20193;-81
2023/10/16 09:50:20;;;;;;;17.93;10.50;;;9.10;99.90;;;;;;5056245;28;20217;-80
2023/10/16 09:52:49;;;;;;;15.13;10.83;;;9.20;99.90;;;;;;5050293;28;20202;-79
2023/10/16 09:55:18;;;;;;;16.80;10.87;;;9.20;99.90;;;;;;5049853;28;20206;-79
2023/10/16 09:57:50;;;;;;;14.27;10.53;;;9.40;99.90;;;;;;5051472;28;20204;-79
2023/10/16 10:03:12;;;;;;;18.47;10.90;;;9.70;99.90;;;;;;5050274;28;20205;-81
2023/10/16 10:05:55;;;;;;;12.17;9.03;;;10.00;99.90;;;;;;5062691;28;20190;-80
2023/10/16 10:08:39;;;;;;;15.27;10.50;;;10.20;99.90;;;;;;5043577;28;20201;-79
2023/10/16 10:11:26;;;;;;;15.97;9.17;;;10.30;99.90;;;;;;5069140;28;20217;-81
2023/10/16 10:14:09;;;;;;;15.33;9.97;;;10.50;99.90;;;;;;5043173;28;20205;-81
2023/10/16 10:16:45;;;;;;;13.80;9.53;;;10.80;99.90;;;;;;5053945;28;20204;-80
2023/10/16 10:19:24;;;;;;;26.80;13.13;;;11.00;99.90;;;;;;5049473;28;20202;-79
2023/10/16 10:21:53;;;;;;;15.60;9.80;;;11.10;99.90;;;;;;5050598;28;20214;-78
2023/10/16 10:24:24;;;;;;;15.80;10.37;;;11.20;99.90;;;;;;5055351;28;20206;-78
2023/10/16 10:26:51;;;;;;;15.67;10.03;;;11.00;99.90;;;;;;5042550;28;20190;-78
2023/10/16 10:29:20;;;;;;;12.83;9.57;;;10.90;99.90;;;;;;5049327;28;20200;-79
2023/10/16 10:31:48;;;;;;;11.57;9.27;;;10.80;99.90;;;;;;5063836;28;20230;-79
2023/10/16 10:34:24;;;;;;;8.87;7.97;;;11.40;99.90;;;;;;5064236;28;20209;-78
2023/10/16 10:36:53;;;;;;;10.77;7.23;;;11.50;99.90;;;;;;5055299;28;20202;-79
2023/10/16 10:39:43;;;;;;;11.17;8.47;;;11.40;99.90;;;;;;5064152;28;20208;-80
2023/10/16 10:42:16;;;;;;;10.93;8.97;;;11.50;99.90;;;;;;5064550;28;20690;-80
2023/10/16 10:44:55;;;;;;;11.13;7.67;;;11.70;99.90;;;;;;5050037;28;20224;-81
2023/10/16 10:47:30;;;;;;;9.10;7.53;;;12.00;99.90;;;;;;5070786;28;20197;-81
2023/10/16 10:50:00;;;;;;;9.70;7.80;;;12.50;99.90;;;;;;5052047;28;20220;-81
2023/10/16 10:52:32;;;;;;;11.80;7.85;;;12.60;99.90;;;;;;5051939;28;20225;-81
2023/10/16 10:55:07;;;;;;;12.35;8.38;;;12.80;99.90;;;;;;5056070;28;20202;-81
2023/10/16 10:57:35;;;;;;;13.18;8.02;;;12.40;99.90;;;;;;5055319;28;20220;-81
2023/10/16 11:02:52;;;;;;;9.80;6.57;;;12.70;99.90;;;;;;5048300;28;20199;-80
2023/10/16 11:05:26;;;;;;;13.13;7.10;;;13.20;99.90;;;;;;5072777;28;20209;-81
2023/10/16 11:10:46;;;;;;;9.25;5.85;;;13.50;99.90;;;;;;5068744;28;20221;-81
2023/10/16 11:13:15;;;;;;;7.25;4.80;;;14.10;99.90;;;;;;5053089;28;20304;-80
2023/10/16 11:15:47;;;;;;;6.85;4.40;;;14.10;99.90;;;;;;5053272;28;20210;-81
2023/10/16 11:18:18;;;;;;;11.98;5.65;;;14.20;99.90;;;;;;5047045;28;20209;-80
2023/10/16 11:20:48;;;;;;;12.90;5.25;;;14.30;99.90;;;;;;5067151;28;20220;-80
2023/10/16 11:23:17;;;;;;;9.32;5.07;;;14.00;99.90;;;;;;5066081;28;20198;-80
2023/10/16 11:25:50;;;;;;;12.07;6.65;;;13.80;99.90;;;;;;5069393;28;20200;-80
2023/10/16 11:28:21;;;;;;;9.70;6.38;;;13.70;99.90;;;;;;5069646;28;20210;-82
2023/10/16 11:30:53;;;;;;;7.03;5.32;;;14.10;99.90;;;;;;5051529;28;20221;-81
2023/10/16 11:33:34;;;;;;;9.15;5.80;;;14.70;99.90;;;;;;5076217;28;20194;-81
2023/10/16 11:36:06;;;;;;;10.85;5.60;;;14.40;99.90;;;;;;5049217;28;20198;-81
2023/10/16 11:38:34;;;;;;;10.68;6.18;;;15.00;99.90;;;;;;5069805;28;20190;-80
2023/10/16 11:41:12;;;;;;;8.43;5.90;;;15.60;99.90;;;;;;5077925;28;20209;-80
2023/10/16 11:43:47;;;;;;;8.43;5.25;;;16.00;99.90;;;;;;5076688;28;20461;-79
2023/10/16 11:46:29;;;;;;;10.38;4.88;;;16.10;99.90;;;;;;5055217;28;20208;-79
2023/10/16 11:49:17;;;;;;;10.27;4.97;;;16.00;99.90;;;;;;5053699;28;20198;-81
2023/10/16 11:51:46;;;;;;;17.20;9.43;;;15.00;99.90;;;;;;5080898;28;20228;-81
2023/10/16 11:54:20;;;;;;;7.53;5.05;;;14.90;99.90;;;;;;5066188;28;20217;-81
2023/10/16 11:56:52;;;;;;;15.73;7.05;;;14.30;99.90;;;;;;5054348;28;20205;-77
2023/10/16 11:59:21;;;;;;;9.50;4.97;;;14.60;99.90;;;;;;5072535;28;20190;-76
2023/10/16 12:01:51;;;;;;;5.22;4.10;;;14.60;99.90;;;;;;5062284;28;20222;-77
2023/10/16 12:04:19;;;;;;;5.13;3.40;;;14.70;99.90;;;;;;5056947;28;20284;-82
2023/10/16 12:06:48;;;;;;;5.40;3.35;;;13.90;99.90;;;;;;5057275;28;20212;-82
2023/10/16 12:09:25;;;;;;;5.63;3.80;;;13.90;99.90;;;;;;5073951;28;20198;-79
2023/10/16 12:12:33;;;;;;;6.80;5.57;;;13.70;99.90;;;;;;5055427;28;20225;-84
2023/10/16 12:15:31;;;;;;;7.07;4.50;;;13.50;99.90;;;;;;5069538;28;20281;-84
2023/10/16 12:18:09;;;;;;;5.65;3.38;;;13.70;99.90;;;;;;5070972;28;20205;-84
2023/10/16 12:20:37;;;;;;;5.10;3.42;;;13.50;99.90;;;;;;5074151;28;20221;-84
2023/10/16 12:23:08;;;;;;;3.67;2.65;;;13.90;99.90;;;;;;5072067;28;20194;-84
2023/10/16 12:25:36;;;;;;;4.97;2.83;;;13.50;99.90;;;;;;5062656;28;20201;-84
2023/10/16 12:28:10;;;;;;;4.20;2.58;;;13.70;99.90;;;;;;5064146;28;20214;-84
2023/10/16 12:30:43;;;;;;;7.22;3.40;;;13.90;99.90;;;;;;5070175;28;20214;-84
2023/10/16 12:33:15;;;;;;;3.83;3.08;;;14.00;99.90;;;;;;5058595;28;20193;-84
2023/10/16 12:35:48;;;;;;;5.57;2.70;;;13.80;99.90;;;;;;5060334;28;20210;-84
2023/10/16 12:40:59;;;;;;;5.78;2.90;;;14.00;99.90;;;;;;5075299;28;21278;-84
2023/10/16 12:43:34;;;;;;;6.03;3.30;;;14.60;99.90;;;;;;5072925;28;20194;-84
2023/10/16 12:46:09;;;;;;;4.45;2.55;;;15.10;99.90;;;;;;5052361;28;20197;-83
2023/10/16 12:48:43;;;;;;;6.30;1.98;;;15.10;99.90;;;;;;5074014;28;20212;-83
2023/10/16 12:51:11;;;;;;;2.42;1.35;;;15.10;99.90;;;;;;5052313;28;20222;-83
2023/10/16 12:53:45;;;;;;;2.28;1.25;;;14.70;99.90;;;;;;5069897;28;20210;-84
2023/10/16 12:56:20;;;;;;;1.35;1.02;;;14.90;99.90;;;;;;5052358;28;20205;-83
2023/10/16 12:58:52;;;;;;;5.40;2.05;;;14.40;99.90;;;;;;5071917;28;20208;-83
2023/10/16 13:01:21;;;;;;;1.75;1.33;;;14.70;99.90;;;;;;5053817;28;20210;-83
2023/10/16 13:03:59;;;;;;;2.53;1.60;;;14.90;99.90;;;;;;5055670;28;20197;-83
2023/10/16 13:06:28;;;;;;;3.75;1.90;;;15.10;99.80;;;;;;5050474;28;20194;-84
2023/10/16 13:08:58;;;;;;;2.65;1.70;;;15.10;99.80;;;;;;5051363;28;20202;-83
2023/10/16 13:11:39;;;;;;;5.40;1.75;;;14.80;99.20;;;;;;5052060;28;20226;-84
2023/10/16 13:14:08;;;;;;;3.30;1.70;;;14.70;99.80;;;;;;5062582;28;20197;-83
2023/10/16 13:16:53;;;;;;;2.55;1.67;;;14.60;99.90;;;;;;5072985;28;20204;-84
2023/10/16 13:19:31;;;;;;;3.63;1.70;;;14.20;99.90;;;;;;5055188;28;20198;-83
2023/10/16 13:22:10;;;;;;;3.80;1.50;;;14.00;99.90;;;;;;5055919;28;20210;-83
2023/10/16 13:24:38;;;;;;;2.45;1.50;;;14.00;99.90;;;;;;5054983;28;20202;-83
2023/10/16 13:27:37;;;;;;;2.05;1.50;;;14.10;99.90;;;;;;5060036;28;20204;-82
2023/10/16 13:30:31;;;;;;;2.70;1.55;;;13.80;99.90;;;;;;5071888;28;20185;-84
2023/10/16 13:33:38;;;;;;;;;;;;;;;;;;;;;
2023/10/16 13:36:28;;;;;;;4.70;1.73;;;13.20;99.90;;;;;;5072381;28;20186;-84
2023/10/16 13:39:24;;;;;;;2.40;1.55;;;13.70;99.90;;;;;;5076405;28;20201;-84
2023/10/16 13:42:14;;;;;;;3.97;2.15;;;14.00;99.90;;;;;;5081399;28;20213;-84
2023/10/16 13:44:48;;;;;;;3.67;2.60;;;14.20;99.90;;;;;;5057402;28;20692;-84
2023/10/16 13:47:32;;;;;;;4.80;2.20;;;14.10;99.90;;;;;;5047056;28;20198;-84
2023/10/16 13:50:09;;;;;;;3.30;1.52;;;14.10;99.90;;;;;;5057619;28;20204;-84
2023/10/16 13:52:46;;;;;;;3.80;1.75;;;14.20;99.90;;;;;;5061947;28;20217;-84
2023/10/16 13:58:35;;;;;;;4.13;2.50;;;13.80;99.90;;;;;;5061927;28;20196;-84
2023/10/16 14:01:11;;;;;;;8.15;3.17;;;14.20;99.90;;;;;;5082201;28;20202;-86
2023/10/16 14:04:21;;;;;;;4.53;2.70;;;14.20;99.90;;;;;;5074482;28;20201;-84
2023/10/16 14:07:00;;;;;;;5.88;2.55;;;14.20;99.90;;;;;;5049232;28;20200;-84
2023/10/16 14:09:49;;;;;;;6.35;2.95;;;14.10;99.90;;;;;;5082871;28;20554;-84
2023/10/16 14:12:25;;;;;;;3.97;2.25;;;14.10;99.90;;;;;;5058303;28;20226;-84
2023/10/16 14:15:19;;;;;;;6.50;2.15;;;14.20;99.90;;;;;;5067302;28;20205;-84
2023/10/16 14:17:53;;;;;;;5.95;3.05;;;14.30;99.90;;;;;;5060363;28;20205;-84
2023/10/16 14:20:42;;;;;;;3.50;2.95;;;14.10;99.90;;;;;;5053219;28;20198;-84
2023/10/16 14:23:32;;;;;;;4.72;2.67;;;13.90;99.90;;;;;;5045424;28;20188;-84
2023/10/16 14:33:46;;;;;;;4.47;2.60;;;13.90;99.90;;;;;;5070230;28;20205;-84
2023/10/16 14:36:33;;;;;;;4.90;2.40;;;14.00;99.90;;;;;;5054557;28;20202;-84
2023/10/16 14:39:08;;;;;;;2.88;1.60;;;14.00;99.90;;;;;;5051655;28;20678;-84
2023/10/16 14:41:41;;;;;;;3.63;2.17;;;13.90;99.90;;;;;;5057038;28;20220;-84
2023/10/16 14:44:22;;;;;;;4.18;1.63;;;14.00;99.90;;;;;;5077416;28;20193;-83
2023/10/16 14:47:09;;;;;;;5.95;2.03;;;14.00;99.90;;;;;;5047787;28;20201;-84
2023/10/16 14:49:55;;;;;;;3.10;1.50;;;13.90;99.90;;;;;;5052047;28;20197;-84
2023/10/16 14:52:30;;;;;;;3.20;1.80;;;14.00;99.90;;;;;;5067065;28;20222;-83
2023/10/16 14:55:09;;;;;;;2.28;1.60;;;13.90;99.90;;;;;;5052025;28;20212;-84
2023/10/16 14:58:02;;;;;;;4.05;1.85;;;13.70;99.90;;;;;;5051733;28;20528;-84
2023/10/16 15:00:41;;;;;;;5.85;1.85;;;13.70;99.90;;;;;;5049497;28;20194;-84
2023/10/16 15:03:13;;;;;;;2.75;1.88;;;13.60;99.90;;;;;;5071703;28;20186;-82
2023/10/16 15:05:42;;;;;;;2.85;2.00;;;13.40;99.90;;;;;;5048752;28;20201;-84